createdAt,value
2022-12-11T00:00:56.272Z,99552.66
2022-12-11T00:03:24.061Z,99557.31
2022-12-11T00:05:51.747Z,99563.69
2022-12-11T00:08:19.472Z,99563.59
2022-12-11T00:10:50.155Z,99558.88
2022-12-11T00:13:19.153Z,99569.16
2022-12-11T00:15:46.771Z,99568.03
2022-12-11T00:18:16.376Z,99557.38
2022-12-11T00:20:44.201Z,99559.19
2022-12-11T00:23:12.028Z,99562.09
2022-12-11T00:25:42.536Z,99556.56
2022-12-11T00:28:10.308Z,99564.47
2022-12-11T00:30:41.980Z,99570.56
2022-12-11T00:33:12.758Z,99574.72
2022-12-11T00:35:40.513Z,99569.44
2022-12-11T00:38:09.173Z,99562.91
2022-12-11T00:40:38.489Z,99562.78
2022-12-11T00:43:06.412Z,99561.13
2022-12-11T00:45:37.905Z,99554.19
2022-12-11T00:48:08.930Z,99550.03
2022-12-11T00:50:37.028Z,99554.59
2022-12-11T00:53:06.102Z,99564.84
2022-12-11T00:55:40.171Z,99556.13
2022-12-11T00:58:08.504Z,99566.38
2022-12-11T01:00:36.783Z,99564.44
2022-12-11T01:03:05.175Z,99567.50
2022-12-11T01:05:34.790Z,99558.88
2022-12-11T01:08:02.453Z,99564.97
2022-12-11T01:10:29.261Z,99564.88
2022-12-11T01:12:58.637Z,99563.31
2022-12-11T01:15:28.828Z,99570.53
2022-12-11T01:17:57.186Z,99567.75
2022-12-11T01:20:26.507Z,99562.47
2022-12-11T01:22:56.816Z,99567.34
2022-12-11T01:25:26.050Z,99567.78
2022-12-11T01:27:54.853Z,99565.41
2022-12-11T01:30:24.883Z,99563.06
2022-12-11T01:32:53.173Z,99564.56
2022-12-11T01:35:21.614Z,99555.00
2022-12-11T01:37:49.712Z,99559.72
2022-12-11T01:40:21.027Z,99556.84
2022-12-11T01:42:48.819Z,99565.28
2022-12-11T01:45:33.545Z,99562.22
2022-12-11T01:48:06.247Z,99561.25
2022-12-11T01:50:37.144Z,99549.56
2022-12-11T01:53:08.110Z,99553.56
2022-12-11T01:55:39.833Z,99562.16
2022-12-11T01:58:10.185Z,99569.94
2022-12-11T02:00:37.767Z,99563.03
2022-12-11T02:03:05.892Z,99560.19
2022-12-11T02:05:33.543Z,99571.19
2022-12-11T02:08:04.034Z,99565.41
2022-12-11T02:10:48.634Z,99554.31
2022-12-11T02:13:22.582Z,99558.06
2022-12-11T02:15:57.708Z,99559.56
2022-12-11T02:18:32.659Z,99562.91
2022-12-11T02:21:08.195Z,99559.59
2022-12-11T02:23:58.575Z,99559.47
2022-12-11T02:26:49.979Z,99557.78
2022-12-11T02:29:23.819Z,99557.94
2022-12-11T02:31:56.898Z,99567.63
2022-12-11T02:34:31.986Z,99572.75
2022-12-11T02:37:05.376Z,99569.72
2022-12-11T02:39:36.716Z,99569.56
2022-12-11T02:42:05.865Z,99572.22
2022-12-11T02:44:35.996Z,99577.22
2022-12-11T02:47:07.958Z,99582.63
2022-12-11T02:49:36.463Z,99585.78
2022-12-11T02:52:07.129Z,99576.94
2022-12-11T02:54:41.013Z,99589.13
2022-12-11T02:57:12.869Z,99582.19
2022-12-11T02:59:45.092Z,99570.69
2022-12-11T03:02:14.208Z,99566.53
2022-12-11T03:04:43.009Z,99570.66
2022-12-11T03:07:17.060Z,99574.13
2022-12-11T03:09:47.163Z,99568.72
2022-12-11T03:12:17.875Z,99573.84
2022-12-11T03:14:47.966Z,99574.81
2022-12-11T03:17:20.013Z,99577.75
2022-12-11T03:19:54.323Z,99574.78
2022-12-11T03:22:27.624Z,99566.88
2022-12-11T03:25:01.742Z,99574.81
2022-12-11T03:27:33.189Z,99565.25
2022-12-11T03:30:07.028Z,99570.25
2022-12-11T03:32:41.700Z,99567.78
2022-12-11T03:35:14.976Z,99571.53
2022-12-11T03:37:45.307Z,99564.03
2022-12-11T03:40:17.376Z,99569.84
2022-12-11T03:42:47.738Z,99567.91
2022-12-11T03:45:19.090Z,99572.88
2022-12-11T03:47:48.441Z,99570.25
2022-12-11T03:50:19.306Z,99569.88
2022-12-11T03:52:48.534Z,99569.84
2022-12-11T03:55:19.562Z,99575.53
2022-12-11T03:57:47.122Z,99562.09
2022-12-11T04:00:20.076Z,99573.59
2022-12-11T04:03:13.277Z,99566.53
2022-12-11T04:05:42.529Z,99564.97
2022-12-11T04:08:11.356Z,99571.94
2022-12-11T04:10:39.087Z,99572.06
2022-12-11T04:13:07.283Z,99566.38
2022-12-11T04:15:35.754Z,99555.00
2022-12-11T04:18:20.910Z,99576.91
2022-12-11T04:21:06.261Z,99568.59
2022-12-11T04:23:51.658Z,99568.44
2022-12-11T04:26:21.598Z,99568.47
2022-12-11T04:28:50.653Z,99564.59
2022-12-11T04:31:22.056Z,99571.53
2022-12-11T04:33:50.327Z,99578.84
2022-12-11T04:36:18.446Z,99574.28
2022-12-11T04:38:46.098Z,99574.41
2022-12-11T04:41:15.807Z,99574.09
2022-12-11T04:43:45.000Z,99570.22
2022-12-11T04:46:15.115Z,99570.25
2022-12-11T04:48:44.472Z,99564.56
2022-12-11T04:51:12.169Z,99564.84
2022-12-11T04:53:39.841Z,99562.34
2022-12-11T04:56:08.487Z,99566.25
2022-12-11T04:58:36.857Z,99567.94
2022-12-11T05:01:08.941Z,99562.50
2022-12-11T05:03:37.043Z,99567.09
2022-12-11T05:06:06.661Z,99566.66
2022-12-11T05:08:36.022Z,99563.59
2022-12-11T05:11:06.371Z,99567.22
2022-12-11T05:13:34.578Z,99565.13
2022-12-11T05:16:05.359Z,99552.50
2022-12-11T05:18:33.074Z,99552.50
2022-12-11T05:21:02.601Z,99541.13
2022-12-11T05:23:31.909Z,99542.50
2022-12-11T05:26:01.258Z,99541.25
2022-12-11T05:28:31.341Z,99541.97
2022-12-11T05:30:59.483Z,99542.41
2022-12-11T05:33:28.356Z,99551.41
2022-12-11T05:35:56.302Z,99542.41
2022-12-11T05:38:24.164Z,99549.34
2022-12-11T05:40:58.916Z,99544.75
2022-12-11T05:43:28.164Z,99537.28
2022-12-11T05:45:57.149Z,99541.16
2022-12-11T05:48:24.757Z,99538.94
2022-12-11T05:50:59.226Z,99540.31
2022-12-11T05:53:27.419Z,99538.38
2022-12-11T05:55:55.372Z,99523.69
2022-12-11T05:58:24.354Z,99541.16
2022-12-11T06:00:51.968Z,99537.69
2022-12-11T06:03:20.143Z,99533.81
2022-12-11T06:05:47.783Z,99529.53
2022-12-11T06:08:15.443Z,99531.03
2022-12-11T06:10:46.369Z,99519.81
2022-12-11T06:13:14.176Z,99518.31
2022-12-11T06:15:43.760Z,99516.34
2022-12-11T06:18:11.676Z,99525.91
2022-12-11T06:20:41.909Z,99519.94
2022-12-11T06:23:10.873Z,99526.84
2022-12-11T06:25:39.279Z,99531.25
2022-12-11T06:28:06.913Z,99526.41
2022-12-11T06:30:38.484Z,99534.41
2022-12-11T06:33:08.534Z,99533.09
2022-12-11T06:35:41.701Z,99527.44
2022-12-11T06:38:10.589Z,99532.41
2022-12-11T06:40:38.419Z,99526.97
2022-12-11T06:43:06.264Z,99522.41
2022-12-11T06:45:33.902Z,99517.03
2022-12-11T06:48:01.704Z,99510.78
2022-12-11T06:50:30.672Z,99515.63
2022-12-11T06:52:58.359Z,99525.03
2022-12-11T06:55:26.021Z,99521.31
2022-12-11T06:57:53.945Z,99522.16
2022-12-11T07:00:21.623Z,99520.47
2022-12-11T07:02:51.338Z,99517.69
2022-12-11T07:05:19.073Z,99527.25
2022-12-11T07:07:48.139Z,99528.63
2022-12-11T07:10:15.888Z,99528.47
2022-12-11T07:12:43.511Z,99531.59
2022-12-11T07:15:12.181Z,99525.94
2022-12-11T07:17:40.405Z,99532.97
2022-12-11T07:20:09.143Z,99530.09
2022-12-11T07:22:41.624Z,99528.63
2022-12-11T07:25:13.926Z,99529.56
2022-12-11T07:27:42.490Z,99532.09
2022-12-11T07:30:11.362Z,99533.22
2022-12-11T07:32:39.265Z,99532.38
2022-12-11T07:35:07.364Z,99536.38
2022-12-11T07:37:34.931Z,99539.84
2022-12-11T07:40:02.809Z,99540.72
2022-12-11T07:42:33.861Z,99538.19
2022-12-11T07:45:01.528Z,99541.38
2022-12-11T07:47:29.508Z,99545.19
2022-12-11T07:49:57.090Z,99543.69
2022-12-11T07:52:24.699Z,99547.25
2022-12-11T07:54:52.914Z,99546.06
2022-12-11T07:57:20.970Z,99538.97
2022-12-11T07:59:50.319Z,99540.25
2022-12-11T08:02:18.170Z,99557.16
2022-12-11T08:04:45.836Z,99555.78
2022-12-11T08:07:13.662Z,99562.50
2022-12-11T08:09:41.370Z,99561.47
2022-12-11T08:12:09.167Z,99563.25
2022-12-11T08:14:36.919Z,99558.44
2022-12-11T08:17:05.888Z,99554.00
2022-12-11T08:19:33.476Z,99553.09
2022-12-11T08:22:01.066Z,99550.16
2022-12-11T08:24:28.669Z,99545.28
2022-12-11T08:26:56.302Z,99546.84
2022-12-11T08:29:23.871Z,99546.00
2022-12-11T08:31:51.516Z,99552.50
2022-12-11T08:34:20.489Z,99547.38
2022-12-11T08:36:48.128Z,99542.69
2022-12-11T08:39:15.804Z,99544.06
2022-12-11T08:41:43.432Z,99538.94
2022-12-11T08:44:16.658Z,99539.34
2022-12-11T08:46:44.828Z,99542.94
2022-12-11T08:49:12.395Z,99537.66
2022-12-11T08:51:41.323Z,99548.75
2022-12-11T08:54:10.806Z,99548.50
2022-12-11T08:56:38.385Z,99550.03
2022-12-11T08:59:06.207Z,99549.19
2022-12-11T09:01:33.977Z,99556.38
2022-12-11T09:04:01.607Z,99557.47
2022-12-11T09:06:31.230Z,99558.03
2022-12-11T09:09:02.491Z,99557.31
2022-12-11T09:11:32.387Z,99551.38
2022-12-11T09:14:06.940Z,99543.72
2022-12-11T09:16:37.636Z,99540.28
2022-12-11T09:19:05.326Z,99538.19
2022-12-11T09:21:32.973Z,99547.81
2022-12-11T09:24:02.490Z,99546.41
2022-12-11T09:26:31.764Z,99550.69
2022-12-11T09:28:59.825Z,99559.19
2022-12-11T09:31:29.683Z,99551.22
2022-12-11T09:33:59.890Z,99553.31
2022-12-11T09:36:27.949Z,99554.72
2022-12-11T09:38:55.749Z,99551.69
2022-12-11T09:41:41.282Z,99550.97
2022-12-11T09:44:21.385Z,99553.03
2022-12-11T09:46:50.620Z,99549.84
2022-12-11T09:49:34.874Z,99546.53
2022-12-11T09:52:13.468Z,99537.22
2022-12-11T09:54:48.845Z,99543.41
2022-12-11T09:57:27.427Z,99545.19
2022-12-11T10:00:09.602Z,99541.72
2022-12-11T10:02:52.122Z,99532.66
2022-12-11T10:05:29.037Z,99538.50
2022-12-11T10:08:05.609Z,99531.97
2022-12-11T10:10:42.167Z,99525.69
2022-12-11T10:13:22.848Z,99538.22
2022-12-11T10:15:55.574Z,99527.00
2022-12-11T10:18:25.827Z,99536.41
2022-12-11T10:20:54.713Z,99535.94
2022-12-11T10:23:28.944Z,99532.56
2022-12-11T10:26:03.900Z,99534.38
2022-12-11T10:28:33.529Z,99543.88
2022-12-11T10:31:09.852Z,99540.03
2022-12-11T10:33:42.791Z,99542.09
2022-12-11T10:36:11.753Z,99528.22
2022-12-11T10:38:43.914Z,99531.50
2022-12-11T10:41:16.051Z,99534.25
2022-12-11T10:43:48.245Z,99525.72
2022-12-11T10:46:21.283Z,99526.47
2022-12-11T10:48:53.205Z,99525.59
2022-12-11T10:51:23.088Z,99520.97
2022-12-11T10:53:51.986Z,99518.59
2022-12-11T10:56:27.466Z,99523.28
2022-12-11T10:58:58.624Z,99513.03
2022-12-11T11:01:29.412Z,99499.13
2022-12-11T11:04:00.970Z,99504.91
2022-12-11T11:06:28.781Z,99502.00
2022-12-11T11:08:59.978Z,99487.59
2022-12-11T11:11:33.920Z,99491.22
2022-12-11T11:14:17.490Z,99498.63
2022-12-11T11:16:47.424Z,99488.41
2022-12-11T11:19:21.348Z,99495.34
2022-12-11T11:21:52.572Z,99484.16
2022-12-11T11:24:28.716Z,99489.16
2022-12-11T11:27:12.808Z,99486.22
2022-12-11T11:29:46.608Z,99482.34
2022-12-11T11:32:25.737Z,99478.56
2022-12-11T11:34:53.571Z,99471.00
2022-12-11T11:37:31.148Z,99466.81
2022-12-11T11:40:06.769Z,99466.34
2022-12-11T11:42:46.652Z,99469.06
2022-12-11T11:45:21.599Z,99463.31
2022-12-11T11:47:55.412Z,99465.38
2022-12-11T11:50:29.101Z,99458.47
2022-12-11T11:53:02.477Z,99466.09
2022-12-11T11:55:39.092Z,99463.34
2022-12-11T11:58:13.765Z,99459.63
2022-12-11T12:00:43.301Z,99466.00
2022-12-11T12:03:13.658Z,99451.56
2022-12-11T12:05:51.493Z,99456.25
2022-12-11T12:08:29.259Z,99451.94
2022-12-11T12:11:04.604Z,99450.50
2022-12-11T12:13:50.754Z,99450.03
2022-12-11T12:16:52.075Z,99452.53
2022-12-11T12:19:32.648Z,99446.78
2022-12-11T12:22:09.262Z,99449.59
2022-12-11T12:24:43.373Z,99438.94
2022-12-11T12:27:50.567Z,99443.06
2022-12-11T12:30:11.741Z,99442.56
2022-12-11T12:32:56.379Z,99446.03
2022-12-11T12:35:35.244Z,99450.59
2022-12-11T12:38:11.488Z,99449.44
2022-12-11T12:40:51.464Z,99455.38
2022-12-11T12:43:38.188Z,99446.44
2022-12-11T12:46:18.838Z,99457.31
2022-12-11T12:48:47.982Z,99451.66
2022-12-11T12:51:18.359Z,99448.22
2022-12-11T12:53:53.789Z,99449.53
2022-12-11T12:56:22.938Z,99441.25
2022-12-11T12:58:51.085Z,99435.13
2022-12-11T13:01:21.911Z,99429.81
2022-12-11T13:03:59.020Z,99437.72
2022-12-11T13:06:33.931Z,99435.50
2022-12-11T13:09:14.415Z,99441.38
2022-12-11T13:11:42.682Z,99437.00
2022-12-11T13:14:29.611Z,99437.13
2022-12-11T13:17:23.755Z,99439.38
2022-12-11T13:20:14.886Z,99442.53
2022-12-11T13:22:54.853Z,99444.69
2022-12-11T13:25:28.903Z,99438.28
2022-12-11T13:28:07.120Z,99438.34
2022-12-11T13:30:35.309Z,99440.31
2022-12-11T13:33:07.041Z,99436.84
2022-12-11T13:35:39.268Z,99442.81
2022-12-11T13:38:09.255Z,99442.72
2022-12-11T13:40:40.956Z,99433.03
2022-12-11T13:43:19.464Z,99446.03
2022-12-11T13:45:50.968Z,99439.22
2022-12-11T13:48:24.220Z,99447.63
2022-12-11T13:50:54.526Z,99441.78
2022-12-11T13:53:22.855Z,99450.06
2022-12-11T13:55:58.154Z,99444.88
2022-12-11T13:58:26.203Z,99447.47
2022-12-11T14:01:07.558Z,99440.78
2022-12-11T14:03:36.186Z,99440.59
2022-12-11T14:06:05.786Z,99438.19
2022-12-11T14:08:37.254Z,99440.75
2022-12-11T14:11:06.111Z,99445.88
2022-12-11T14:13:37.075Z,99446.47
2022-12-11T14:16:06.917Z,99446.22
2022-12-11T14:18:36.946Z,99450.00
2022-12-11T14:21:07.293Z,99437.88
2022-12-11T14:23:36.898Z,99437.97
2022-12-11T14:26:16.175Z,99446.78
2022-12-11T14:28:44.315Z,99440.84
2022-12-11T14:31:17.820Z,99449.84
2022-12-11T14:33:51.073Z,99449.50
2022-12-11T14:36:21.391Z,99443.63
2022-12-11T14:38:53.362Z,99448.41
2022-12-11T14:41:26.023Z,99447.78
2022-12-11T14:43:58.335Z,99441.22
2022-12-11T14:46:35.923Z,99439.09
2022-12-11T14:49:12.963Z,99446.78
2022-12-11T14:51:42.679Z,99448.28
2022-12-11T14:54:20.491Z,99447.09
2022-12-11T14:56:48.524Z,99455.47
2022-12-11T14:59:26.974Z,99458.75
2022-12-11T15:02:02.755Z,99459.41
2022-12-11T15:04:35.318Z,99462.22
2022-12-11T15:07:04.511Z,99447.03
2022-12-11T15:09:40.710Z,99458.19
2022-12-11T15:12:11.996Z,99463.34
2022-12-11T15:14:47.992Z,99462.72
2022-12-11T15:17:16.434Z,99461.91
2022-12-11T15:19:49.622Z,99459.09
2022-12-11T15:22:23.044Z,99459.28
2022-12-11T15:24:53.799Z,99463.06
2022-12-11T15:27:27.579Z,99470.31
2022-12-11T15:29:55.368Z,99468.91
2022-12-11T15:32:23.295Z,99469.44
2022-12-11T15:34:53.148Z,99474.84
2022-12-11T15:37:24.659Z,99471.25
2022-12-11T15:39:53.396Z,99480.06
2022-12-11T15:42:26.786Z,99475.75
2022-12-11T15:44:55.334Z,99475.47
2022-12-11T15:47:24.885Z,99474.44
2022-12-11T15:49:56.072Z,99481.66
2022-12-11T15:52:25.442Z,99478.81
2022-12-11T15:54:53.459Z,99479.88
2022-12-11T15:57:23.658Z,99481.97
2022-12-11T15:59:55.333Z,99494.44
2022-12-11T16:02:24.377Z,99484.88
2022-12-11T16:04:52.116Z,99483.53
2022-12-11T16:07:22.185Z,99487.09
2022-12-11T16:09:51.814Z,99480.38
2022-12-11T16:12:20.429Z,99485.88
2022-12-11T16:14:48.206Z,99491.41
2022-12-11T16:17:16.704Z,99489.03
2022-12-11T16:19:45.289Z,99487.06
2022-12-11T16:22:14.160Z,99482.28
2022-12-11T16:24:42.102Z,99480.97
2022-12-11T16:27:12.424Z,99483.69
2022-12-11T16:29:42.208Z,99481.81
2022-12-11T16:32:10.112Z,99489.16
2022-12-11T16:34:39.048Z,99477.59
2022-12-11T16:37:08.199Z,99485.41
2022-12-11T16:39:39.222Z,99486.84
2022-12-11T16:42:07.106Z,99484.53
2022-12-11T16:44:39.649Z,99479.72
2022-12-11T16:47:11.386Z,99490.72
2022-12-11T16:49:39.214Z,99473.63
2022-12-11T16:52:06.806Z,99471.38
2022-12-11T16:54:34.509Z,99474.88
2022-12-11T16:57:02.257Z,99474.88
2022-12-11T17:02:51.583Z,99474.97
2022-12-11T17:05:19.445Z,99472.47
2022-12-11T17:07:47.023Z,99470.31
2022-12-11T17:10:14.789Z,99472.88
2022-12-11T17:12:42.379Z,99465.53
2022-12-11T17:15:11.203Z,99467.66
2022-12-11T17:17:40.023Z,99464.75
2022-12-11T17:20:13.406Z,99454.81
2022-12-11T17:22:41.312Z,99463.06
2022-12-11T17:25:09.845Z,99459.72
2022-12-11T17:27:37.676Z,99469.97
2022-12-11T17:30:06.026Z,99464.84
2022-12-11T17:32:33.793Z,99471.41
2022-12-11T17:35:03.978Z,99465.19
2022-12-11T17:37:33.601Z,99461.72
2022-12-11T17:40:01.287Z,99466.53
2022-12-11T17:42:29.022Z,99469.25
2022-12-11T17:44:56.864Z,99466.09
2022-12-11T17:47:25.079Z,99454.47
2022-12-11T17:49:52.829Z,99460.50
2022-12-11T17:52:20.540Z,99452.13
2022-12-11T17:54:49.833Z,99464.28
2022-12-11T17:57:17.494Z,99460.94
2022-12-11T17:59:45.349Z,99457.38
2022-12-11T18:02:13.065Z,99460.06
2022-12-11T18:04:40.887Z,99459.59
2022-12-11T18:07:09.263Z,99464.78
2022-12-11T18:09:39.576Z,99460.75
2022-12-11T18:12:09.305Z,99459.75
2022-12-11T18:14:38.301Z,99463.97
2022-12-11T18:17:06.438Z,99463.16
2022-12-11T18:19:34.687Z,99461.25
2022-12-11T18:22:03.579Z,99456.28
2022-12-11T18:24:32.878Z,99457.06
2022-12-11T18:27:00.676Z,99453.66
2022-12-11T18:29:29.713Z,99459.69
2022-12-11T18:31:57.394Z,99453.88
2022-12-11T18:34:26.214Z,99452.00
2022-12-11T18:36:53.881Z,99461.38
2022-12-11T18:39:22.358Z,99450.69
2022-12-11T18:42:03.418Z,99453.56
2022-12-11T18:44:38.988Z,99455.59
2022-12-11T18:47:06.976Z,99458.19
2022-12-11T18:49:34.733Z,99461.81
2022-12-11T18:52:02.445Z,99464.97
2022-12-11T18:54:30.475Z,99468.31
2022-12-11T18:56:58.498Z,99463.09
2022-12-11T18:59:26.694Z,99465.78
2022-12-11T19:01:55.822Z,99463.66
2022-12-11T19:04:23.577Z,99470.47
2022-12-11T19:06:51.513Z,99469.50
2022-12-11T19:09:19.283Z,99466.19
2022-12-11T19:11:47.466Z,99463.22
2022-12-11T19:14:15.500Z,99467.13
2022-12-11T19:16:45.377Z,99466.78
2022-12-11T19:19:17.395Z,99454.31
2022-12-11T19:21:45.671Z,99460.81
2022-12-11T19:24:15.696Z,99456.34
2022-12-11T19:26:44.056Z,99457.78
2022-12-11T19:29:19.723Z,99464.53
2022-12-11T19:31:47.603Z,99459.09
2022-12-11T19:34:17.324Z,99455.81
2022-12-11T19:36:45.154Z,99458.88
2022-12-11T19:39:14.329Z,99457.72
2022-12-11T19:41:42.812Z,99466.94
2022-12-11T19:44:10.671Z,99457.22
2022-12-11T19:46:38.489Z,99461.53
2022-12-11T19:49:06.779Z,99450.03
2022-12-11T19:51:40.409Z,99455.78
2022-12-11T19:54:09.698Z,99460.22
2022-12-11T19:56:38.095Z,99458.22
2022-12-11T19:59:08.634Z,99452.94
2022-12-11T20:01:38.077Z,99449.75
2022-12-11T20:04:10.097Z,99458.28
2022-12-11T20:06:41.369Z,99457.34
2022-12-11T20:09:12.094Z,99457.81
2022-12-11T20:11:41.808Z,99455.59
2022-12-11T20:14:10.338Z,99451.72
2022-12-11T20:19:26.629Z,99454.06
2022-12-11T20:21:56.462Z,99449.44
2022-12-11T20:24:24.396Z,99449.88
2022-12-11T20:26:54.172Z,99458.66
2022-12-11T20:29:22.058Z,99455.19
2022-12-11T20:31:52.511Z,99457.34
2022-12-11T20:34:20.972Z,99459.03
2022-12-11T20:36:48.870Z,99449.94
2022-12-11T20:39:18.209Z,99459.69
2022-12-11T20:41:48.112Z,99455.66
2022-12-11T20:44:16.030Z,99449.53
2022-12-11T20:46:43.779Z,99455.69
2022-12-11T20:49:12.933Z,99458.50
2022-12-11T20:51:41.561Z,99450.81
2022-12-11T20:54:09.372Z,99454.06
2022-12-11T20:56:39.116Z,99450.78
2022-12-11T20:59:06.800Z,99454.66
2022-12-11T21:01:34.921Z,99452.34
2022-12-11T21:04:02.989Z,99455.69
2022-12-11T21:06:33.180Z,99455.53
2022-12-11T21:09:02.293Z,99452.81
2022-12-11T21:11:30.269Z,99455.91
2022-12-11T21:13:59.239Z,99448.28
2022-12-11T21:16:27.614Z,99447.53
2022-12-11T21:18:56.043Z,99450.50
2022-12-11T21:21:23.937Z,99456.09
2022-12-11T21:23:52.273Z,99449.88
2022-12-11T21:26:24.038Z,99445.44
2022-12-11T21:28:52.002Z,99450.66
2022-12-11T21:31:21.388Z,99450.34
2022-12-11T21:33:49.521Z,99437.66
2022-12-11T21:36:17.568Z,99444.16
2022-12-11T21:38:46.168Z,99442.94
2022-12-11T21:41:16.809Z,99441.47
2022-12-11T21:44:40.955Z,99454.91
2022-12-11T21:49:17.109Z,99453.41
2022-12-11T21:51:47.661Z,99453.22
2022-12-11T21:54:17.693Z,99451.25
2022-12-11T21:56:46.478Z,99452.19
2022-12-11T21:59:15.247Z,99450.78
2022-12-11T22:01:46.136Z,99449.34
2022-12-11T22:04:17.116Z,99455.78
2022-12-11T22:06:46.896Z,99447.56
2022-12-11T22:09:15.645Z,99456.16
2022-12-11T22:11:45.140Z,99459.00
2022-12-11T22:14:13.391Z,99450.88
2022-12-11T22:16:41.046Z,99447.84
2022-12-11T22:19:10.190Z,99448.13
2022-12-11T22:21:38.228Z,99453.00
2022-12-11T22:24:06.548Z,99455.03
2022-12-11T22:26:34.436Z,99451.41
2022-12-11T22:29:02.143Z,99457.44
2022-12-11T22:31:29.812Z,99459.06
2022-12-11T22:33:57.694Z,99459.47
2022-12-11T22:36:28.138Z,99465.00
2022-12-11T22:38:56.251Z,99468.38
2022-12-11T22:41:27.049Z,99464.94
2022-12-11T22:43:55.373Z,99461.81
2022-12-11T22:46:27.447Z,99459.81
2022-12-11T22:48:55.183Z,99463.88
2022-12-11T22:51:23.249Z,99464.94
2022-12-11T22:53:52.255Z,99466.41
2022-12-11T22:56:20.086Z,99463.16
2022-12-11T22:58:48.375Z,99464.19
2022-12-11T23:01:21.214Z,99463.31
2022-12-11T23:03:49.752Z,99466.25
2022-12-11T23:06:20.262Z,99466.09
2022-12-11T23:08:48.139Z,99467.06
2022-12-11T23:11:20.223Z,99472.81
2022-12-11T23:13:47.918Z,99463.53
2022-12-11T23:16:16.838Z,99470.69
2022-12-11T23:18:44.918Z,99467.59
2022-12-11T23:21:12.946Z,99467.44
2022-12-11T23:23:40.884Z,99471.00
2022-12-11T23:26:11.233Z,99473.09
2022-12-11T23:28:41.315Z,99479.13
2022-12-11T23:31:09.835Z,99484.16
2022-12-11T23:33:37.906Z,99480.09
2022-12-11T23:36:06.605Z,99475.97
2022-12-11T23:38:34.362Z,99476.59
2022-12-11T23:41:03.593Z,99481.22
2022-12-11T23:43:31.277Z,99478.94
2022-12-11T23:46:00.257Z,99478.81
2022-12-11T23:48:28.157Z,99483.22
2022-12-11T23:51:08.073Z,99488.50
2022-12-11T23:53:35.798Z,99485.97
2022-12-11T23:56:05.856Z,99484.75
2022-12-11T23:58:33.614Z,99482.63
